sensor_id;sensor_type;location;lat;lon;timestamp;P1;durP1;ratioP1;P2;durP2;ratioP2
31482;SDS011;18103;52.246;8.052;2023-07-29T00:01:04;4.20;;;2.93;;
31482;SDS011;18103;52.246;8.052;2023-07-29T00:03:30;5.20;;;3.53;;
31482;SDS011;18103;52.246;8.052;2023-07-29T00:05:58;9.30;;;3.50;;
31482;SDS011;18103;52.246;8.052;2023-07-29T00:08:28;4.13;;;2.77;;
31482;SDS011;18103;52.246;8.052;2023-07-29T00:10:54;6.87;;;3.63;;
31482;SDS011;18103;52.246;8.052;2023-07-29T00:13:25;5.87;;;4.07;;
31482;SDS011;18103;52.246;8.052;2023-07-29T00:15:53;8.80;;;3.53;;
31482;SDS011;18103;52.246;8.052;2023-07-29T00:18:19;4.17;;;3.20;;
31482;SDS011;18103;52.246;8.052;2023-07-29T00:20:45;4.00;;;3.27;;
31482;SDS011;18103;52.246;8.052;2023-07-29T00:23:10;6.33;;;3.80;;
31482;SDS011;18103;52.246;8.052;2023-07-29T00:25:36;8.00;;;4.07;;
31482;SDS011;18103;52.246;8.052;2023-07-29T00:28:03;4.97;;;2.93;;
31482;SDS011;18103;52.246;8.052;2023-07-29T00:30:29;5.43;;;3.87;;
31482;SDS011;18103;52.246;8.052;2023-07-29T00:32:57;6.87;;;3.43;;
31482;SDS011;18103;52.246;8.052;2023-07-29T00:35:22;6.03;;;3.93;;
31482;SDS011;18103;52.246;8.052;2023-07-29T00:37:47;5.10;;;3.73;;
31482;SDS011;18103;52.246;8.052;2023-07-29T00:40:20;7.40;;;3.53;;
31482;SDS011;18103;52.246;8.052;2023-07-29T00:42:53;5.87;;;3.90;;
31482;SDS011;18103;52.246;8.052;2023-07-29T00:45:18;5.27;;;3.33;;
31482;SDS011;18103;52.246;8.052;2023-07-29T00:47:46;6.80;;;3.77;;
31482;SDS011;18103;52.246;8.052;2023-07-29T00:50:13;6.00;;;3.13;;
31482;SDS011;18103;52.246;8.052;2023-07-29T00:52:39;4.90;;;3.23;;
31482;SDS011;18103;52.246;8.052;2023-07-29T00:55:07;5.10;;;3.57;;
31482;SDS011;18103;52.246;8.052;2023-07-29T00:57:36;5.17;;;3.57;;
31482;SDS011;18103;52.246;8.052;2023-07-29T01:00:07;4.97;;;3.60;;
31482;SDS011;18103;52.246;8.052;2023-07-29T01:02:36;5.23;;;3.60;;
31482;SDS011;18103;52.246;8.052;2023-07-29T01:05:01;6.17;;;3.47;;
31482;SDS011;18103;52.246;8.052;2023-07-29T01:07:36;6.27;;;3.70;;
31482;SDS011;18103;52.246;8.052;2023-07-29T01:13:04;5.90;;;3.57;;
31482;SDS011;18103;52.246;8.052;2023-07-29T01:15:43;4.70;;;3.23;;
31482;SDS011;18103;52.246;8.052;2023-07-29T01:18:21;5.23;;;3.20;;
31482;SDS011;18103;52.246;8.052;2023-07-29T01:20:48;5.43;;;3.00;;
31482;SDS011;18103;52.246;8.052;2023-07-29T01:23:23;5.80;;;3.30;;
31482;SDS011;18103;52.246;8.052;2023-07-29T01:25:53;9.73;;;3.20;;
31482;SDS011;18103;52.246;8.052;2023-07-29T01:28:23;5.47;;;2.93;;
31482;SDS011;18103;52.246;8.052;2023-07-29T01:30:53;5.10;;;2.83;;
31482;SDS011;18103;52.246;8.052;2023-07-29T01:33:27;4.90;;;2.63;;
31482;SDS011;18103;52.246;8.052;2023-07-29T01:35:58;5.47;;;2.60;;
31482;SDS011;18103;52.246;8.052;2023-07-29T01:38:36;3.00;;;2.60;;
31482;SDS011;18103;52.246;8.052;2023-07-29T01:41:04;5.43;;;2.63;;
31482;SDS011;18103;52.246;8.052;2023-07-29T01:43:32;4.50;;;2.87;;
31482;SDS011;18103;52.246;8.052;2023-07-29T01:45:58;5.87;;;2.50;;
31482;SDS011;18103;52.246;8.052;2023-07-29T01:48:26;6.43;;;3.33;;
31482;SDS011;18103;52.246;8.052;2023-07-29T01:50:55;3.97;;;2.83;;
31482;SDS011;18103;52.246;8.052;2023-07-29T01:53:22;4.07;;;3.00;;
31482;SDS011;18103;52.246;8.052;2023-07-29T01:55:50;10.07;;;3.13;;
31482;SDS011;18103;52.246;8.052;2023-07-29T01:58:18;3.47;;;3.07;;
31482;SDS011;18103;52.246;8.052;2023-07-29T02:00:43;5.20;;;2.67;;
31482;SDS011;18103;52.246;8.052;2023-07-29T02:03:08;4.50;;;2.90;;
31482;SDS011;18103;52.246;8.052;2023-07-29T02:05:34;3.77;;;2.47;;
31482;SDS011;18103;52.246;8.052;2023-07-29T02:07:59;6.77;;;2.90;;
31482;SDS011;18103;52.246;8.052;2023-07-29T02:10:24;3.27;;;2.53;;
31482;SDS011;18103;52.246;8.052;2023-07-29T02:12:50;5.63;;;2.30;;
31482;SDS011;18103;52.246;8.052;2023-07-29T02:15:20;3.13;;;2.50;;
31482;SDS011;18103;52.246;8.052;2023-07-29T02:17:45;3.93;;;2.90;;
31482;SDS011;18103;52.246;8.052;2023-07-29T02:20:14;3.30;;;2.57;;
31482;SDS011;18103;52.246;8.052;2023-07-29T02:22:41;6.80;;;2.80;;
31482;SDS011;18103;52.246;8.052;2023-07-29T02:25:07;3.83;;;2.40;;
31482;SDS011;18103;52.246;8.052;2023-07-29T02:27:35;5.43;;;2.80;;
31482;SDS011;18103;52.246;8.052;2023-07-29T02:30:00;3.03;;;2.43;;
31482;SDS011;18103;52.246;8.052;2023-07-29T02:32:28;5.47;;;2.97;;
31482;SDS011;18103;52.246;8.052;2023-07-29T02:34:56;4.10;;;2.90;;
31482;SDS011;18103;52.246;8.052;2023-07-29T02:37:21;4.43;;;3.13;;
31482;SDS011;18103;52.246;8.052;2023-07-29T02:39:49;6.13;;;3.77;;
31482;SDS011;18103;52.246;8.052;2023-07-29T02:42:17;5.13;;;3.60;;
31482;SDS011;18103;52.246;8.052;2023-07-29T02:44:44;6.10;;;3.30;;
31482;SDS011;18103;52.246;8.052;2023-07-29T02:47:12;4.60;;;3.27;;
31482;SDS011;18103;52.246;8.052;2023-07-29T02:49:39;7.63;;;4.73;;
31482;SDS011;18103;52.246;8.052;2023-07-29T02:52:05;6.27;;;4.10;;
31482;SDS011;18103;52.246;8.052;2023-07-29T02:54:30;8.80;;;4.60;;
31482;SDS011;18103;52.246;8.052;2023-07-29T02:56:58;9.80;;;5.07;;
31482;SDS011;18103;52.246;8.052;2023-07-29T02:59:23;9.07;;;4.47;;
31482;SDS011;18103;52.246;8.052;2023-07-29T03:01:49;6.37;;;4.50;;
31482;SDS011;18103;52.246;8.052;2023-07-29T03:04:15;6.40;;;5.10;;
31482;SDS011;18103;52.246;8.052;2023-07-29T03:06:43;8.80;;;5.67;;
31482;SDS011;18103;52.246;8.052;2023-07-29T03:09:08;6.97;;;4.60;;
31482;SDS011;18103;52.246;8.052;2023-07-29T03:11:34;9.40;;;5.37;;
31482;SDS011;18103;52.246;8.052;2023-07-29T03:14:00;8.13;;;5.83;;
31482;SDS011;18103;52.246;8.052;2023-07-29T03:16:27;11.17;;;5.50;;
31482;SDS011;18103;52.246;8.052;2023-07-29T03:18:53;9.27;;;6.10;;
31482;SDS011;18103;52.246;8.052;2023-07-29T03:21:23;10.50;;;6.10;;
31482;SDS011;18103;52.246;8.052;2023-07-29T03:23:50;9.90;;;6.17;;
31482;SDS011;18103;52.246;8.052;2023-07-29T03:26:16;11.97;;;7.17;;
31482;SDS011;18103;52.246;8.052;2023-07-29T03:28:44;10.37;;;7.83;;
31482;SDS011;18103;52.246;8.052;2023-07-29T03:31:10;9.77;;;6.87;;
31482;SDS011;18103;52.246;8.052;2023-07-29T03:33:38;11.03;;;7.57;;
31482;SDS011;18103;52.246;8.052;2023-07-29T03:36:06;9.03;;;6.30;;
31482;SDS011;18103;52.246;8.052;2023-07-29T03:38:31;8.53;;;6.63;;
31482;SDS011;18103;52.246;8.052;2023-07-29T03:41:00;12.03;;;7.47;;
31482;SDS011;18103;52.246;8.052;2023-07-29T03:43:27;12.17;;;7.43;;
31482;SDS011;18103;52.246;8.052;2023-07-29T03:45:55;10.57;;;7.10;;
31482;SDS011;18103;52.246;8.052;2023-07-29T03:48:23;9.57;;;7.10;;
31482;SDS011;18103;52.246;8.052;2023-07-29T03:50:50;9.63;;;6.83;;
31482;SDS011;18103;52.246;8.052;2023-07-29T03:53:18;11.10;;;7.40;;
31482;SDS011;18103;52.246;8.052;2023-07-29T03:55:43;13.47;;;7.43;;
31482;SDS011;18103;52.246;8.052;2023-07-29T03:58:09;12.67;;;7.17;;
31482;SDS011;18103;52.246;8.052;2023-07-29T04:00:37;11.33;;;7.67;;
31482;SDS011;18103;52.246;8.052;2023-07-29T04:03:02;12.50;;;7.60;;
31482;SDS011;18103;52.246;8.052;2023-07-29T04:05:30;9.87;;;7.30;;
31482;SDS011;18103;52.246;8.052;2023-07-29T04:07:56;13.70;;;8.83;;
31482;SDS011;18103;52.246;8.052;2023-07-29T04:10:23;10.73;;;8.13;;
31482;SDS011;18103;52.246;8.052;2023-07-29T04:12:51;13.27;;;8.03;;
31482;SDS011;18103;52.246;8.052;2023-07-29T04:15:18;13.30;;;8.83;;
31482;SDS011;18103;52.246;8.052;2023-07-29T04:17:44;11.70;;;8.73;;
31482;SDS011;18103;52.246;8.052;2023-07-29T04:20:12;12.07;;;8.27;;
31482;SDS011;18103;52.246;8.052;2023-07-29T04:22:37;14.40;;;9.57;;
31482;SDS011;18103;52.246;8.052;2023-07-29T04:25:02;12.37;;;8.90;;
31482;SDS011;18103;52.246;8.052;2023-07-29T04:27:29;17.17;;;9.27;;
31482;SDS011;18103;52.246;8.052;2023-07-29T04:29:57;12.50;;;9.27;;
31482;SDS011;18103;52.246;8.052;2023-07-29T04:32:22;15.13;;;10.10;;
31482;SDS011;18103;52.246;8.052;2023-07-29T04:34:48;11.43;;;8.53;;
31482;SDS011;18103;52.246;8.052;2023-07-29T04:37:16;15.83;;;9.47;;
31482;SDS011;18103;52.246;8.052;2023-07-29T04:39:41;13.63;;;9.03;;
31482;SDS011;18103;52.246;8.052;2023-07-29T04:42:09;14.97;;;10.30;;
31482;SDS011;18103;52.246;8.052;2023-07-29T04:44:37;13.30;;;10.40;;
31482;SDS011;18103;52.246;8.052;2023-07-29T04:47:02;12.77;;;10.13;;
31482;SDS011;18103;52.246;8.052;2023-07-29T04:49:28;13.30;;;9.50;;
31482;SDS011;18103;52.246;8.052;2023-07-29T04:51:53;14.63;;;9.63;;
31482;SDS011;18103;52.246;8.052;2023-07-29T04:54:19;16.53;;;9.67;;
31482;SDS011;18103;52.246;8.052;2023-07-29T04:56:45;17.53;;;10.10;;
31482;SDS011;18103;52.246;8.052;2023-07-29T04:59:11;13.87;;;9.30;;
31482;SDS011;18103;52.246;8.052;2023-07-29T05:01:38;15.43;;;9.90;;
31482;SDS011;18103;52.246;8.052;2023-07-29T05:04:03;13.83;;;11.03;;
31482;SDS011;18103;52.246;8.052;2023-07-29T05:06:29;16.70;;;11.40;;
31482;SDS011;18103;52.246;8.052;2023-07-29T05:08:56;14.60;;;11.27;;
31482;SDS011;18103;52.246;8.052;2023-07-29T05:11:23;15.37;;;10.97;;
31482;SDS011;18103;52.246;8.052;2023-07-29T05:13:50;14.80;;;11.03;;
31482;SDS011;18103;52.246;8.052;2023-07-29T05:16:15;17.40;;;12.10;;
31482;SDS011;18103;52.246;8.052;2023-07-29T05:18:41;14.27;;;11.80;;
31482;SDS011;18103;52.246;8.052;2023-07-29T05:21:08;15.53;;;12.03;;
31482;SDS011;18103;52.246;8.052;2023-07-29T05:23:36;17.43;;;13.00;;
31482;SDS011;18103;52.246;8.052;2023-07-29T05:26:01;20.77;;;12.57;;
31482;SDS011;18103;52.246;8.052;2023-07-29T05:28:27;18.87;;;13.37;;
31482;SDS011;18103;52.246;8.052;2023-07-29T05:30:52;19.13;;;11.83;;
31482;SDS011;18103;52.246;8.052;2023-07-29T05:33:17;18.27;;;13.30;;
31482;SDS011;18103;52.246;8.052;2023-07-29T05:35:47;20.37;;;14.83;;
31482;SDS011;18103;52.246;8.052;2023-07-29T05:38:15;19.40;;;13.37;;
31482;SDS011;18103;52.246;8.052;2023-07-29T05:40:45;21.00;;;13.30;;
31482;SDS011;18103;52.246;8.052;2023-07-29T05:43:15;24.80;;;13.40;;
31482;SDS011;18103;52.246;8.052;2023-07-29T05:45:40;20.47;;;13.93;;
31482;SDS011;18103;52.246;8.052;2023-07-29T05:48:09;17.03;;;13.23;;
31482;SDS011;18103;52.246;8.052;2023-07-29T05:50:34;18.00;;;12.97;;
31482;SDS011;18103;52.246;8.052;2023-07-29T05:52:59;20.93;;;14.20;;
31482;SDS011;18103;52.246;8.052;2023-07-29T05:55:27;18.37;;;13.17;;
31482;SDS011;18103;52.246;8.052;2023-07-29T05:57:52;20.23;;;14.03;;
31482;SDS011;18103;52.246;8.052;2023-07-29T06:00:18;19.20;;;14.20;;
31482;SDS011;18103;52.246;8.052;2023-07-29T06:02:43;16.97;;;13.50;;
31482;SDS011;18103;52.246;8.052;2023-07-29T06:05:09;16.87;;;12.30;;
31482;SDS011;18103;52.246;8.052;2023-07-29T06:07:36;17.30;;;12.70;;
31482;SDS011;18103;52.246;8.052;2023-07-29T06:10:03;14.87;;;12.67;;
31482;SDS011;18103;52.246;8.052;2023-07-29T06:12:28;15.47;;;11.97;;
31482;SDS011;18103;52.246;8.052;2023-07-29T06:14:56;15.40;;;12.07;;
31482;SDS011;18103;52.246;8.052;2023-07-29T06:17:23;16.27;;;12.27;;
31482;SDS011;18103;52.246;8.052;2023-07-29T06:19:49;15.27;;;12.07;;
31482;SDS011;18103;52.246;8.052;2023-07-29T06:22:14;15.87;;;11.30;;
31482;SDS011;18103;52.246;8.052;2023-07-29T06:24:42;19.63;;;11.67;;
31482;SDS011;18103;52.246;8.052;2023-07-29T06:27:07;16.57;;;11.53;;
31482;SDS011;18103;52.246;8.052;2023-07-29T06:29:35;15.53;;;11.60;;
31482;SDS011;18103;52.246;8.052;2023-07-29T06:32:03;13.37;;;10.83;;
31482;SDS011;18103;52.246;8.052;2023-07-29T06:34:29;16.90;;;11.73;;
31482;SDS011;18103;52.246;8.052;2023-07-29T06:36:54;16.40;;;11.63;;
31482;SDS011;18103;52.246;8.052;2023-07-29T06:39:19;17.87;;;12.43;;
31482;SDS011;18103;52.246;8.052;2023-07-29T06:41:47;15.57;;;10.93;;
31482;SDS011;18103;52.246;8.052;2023-07-29T06:44:12;16.00;;;11.20;;
31482;SDS011;18103;52.246;8.052;2023-07-29T06:46:40;15.50;;;11.80;;
31482;SDS011;18103;52.246;8.052;2023-07-29T06:49:05;17.33;;;11.97;;
31482;SDS011;18103;52.246;8.052;2023-07-29T06:51:31;17.87;;;11.47;;
31482;SDS011;18103;52.246;8.052;2023-07-29T06:53:59;14.60;;;10.93;;
31482;SDS011;18103;52.246;8.052;2023-07-29T06:56:25;15.87;;;11.47;;
31482;SDS011;18103;52.246;8.052;2023-07-29T06:58:55;15.90;;;11.83;;
31482;SDS011;18103;52.246;8.052;2023-07-29T07:01:23;16.93;;;12.30;;
31482;SDS011;18103;52.246;8.052;2023-07-29T07:03:48;14.97;;;10.27;;
31482;SDS011;18103;52.246;8.052;2023-07-29T07:06:19;15.50;;;11.33;;
31482;SDS011;18103;52.246;8.052;2023-07-29T07:08:45;16.17;;;12.00;;
31482;SDS011;18103;52.246;8.052;2023-07-29T07:11:11;19.87;;;12.00;;
31482;SDS011;18103;52.246;8.052;2023-07-29T07:13:36;15.17;;;10.50;;
31482;SDS011;18103;52.246;8.052;2023-07-29T07:16:04;13.80;;;10.10;;
31482;SDS011;18103;52.246;8.052;2023-07-29T07:18:29;16.03;;;11.00;;
31482;SDS011;18103;52.246;8.052;2023-07-29T07:20:54;13.13;;;8.80;;
31482;SDS011;18103;52.246;8.052;2023-07-29T07:23:20;13.40;;;9.57;;
31482;SDS011;18103;52.246;8.052;2023-07-29T07:25:46;17.03;;;9.30;;
31482;SDS011;18103;52.246;8.052;2023-07-29T07:28:11;14.33;;;9.00;;
31482;SDS011;18103;52.246;8.052;2023-07-29T07:30:41;12.93;;;8.87;;
31482;SDS011;18103;52.246;8.052;2023-07-29T07:33:10;10.77;;;7.97;;
31482;SDS011;18103;52.246;8.052;2023-07-29T07:35:35;15.90;;;7.70;;
31482;SDS011;18103;52.246;8.052;2023-07-29T07:38:03;11.20;;;7.53;;
31482;SDS011;18103;52.246;8.052;2023-07-29T07:40:32;11.60;;;7.80;;
31482;SDS011;18103;52.246;8.052;2023-07-29T07:42:58;9.73;;;7.30;;
31482;SDS011;18103;52.246;8.052;2023-07-29T07:45:23;13.87;;;7.87;;
31482;SDS011;18103;52.246;8.052;2023-07-29T07:47:51;12.23;;;7.37;;
31482;SDS011;18103;52.246;8.052;2023-07-29T07:50:18;10.93;;;7.57;;
31482;SDS011;18103;52.246;8.052;2023-07-29T07:52:46;13.67;;;7.17;;
31482;SDS011;18103;52.246;8.052;2023-07-29T07:55:12;11.07;;;8.57;;
31482;SDS011;18103;52.246;8.052;2023-07-29T07:57:40;10.73;;;7.33;;
31482;SDS011;18103;52.246;8.052;2023-07-29T08:00:05;9.83;;;7.73;;
31482;SDS011;18103;52.246;8.052;2023-07-29T08:02:34;11.60;;;6.80;;
31482;SDS011;18103;52.246;8.052;2023-07-29T08:04:59;8.00;;;5.87;;
31482;SDS011;18103;52.246;8.052;2023-07-29T08:07:25;8.70;;;5.20;;
31482;SDS011;18103;52.246;8.052;2023-07-29T08:09:52;4.90;;;3.13;;
31482;SDS011;18103;52.246;8.052;2023-07-29T08:12:18;4.00;;;2.00;;
31482;SDS011;18103;52.246;8.052;2023-07-29T08:14:43;3.60;;;1.23;;
31482;SDS011;18103;52.246;8.052;2023-07-29T08:17:11;4.03;;;1.37;;
31482;SDS011;18103;52.246;8.052;2023-07-29T08:19:36;2.17;;;1.57;;
31482;SDS011;18103;52.246;8.052;2023-07-29T08:22:02;1.13;;;1.00;;
31482;SDS011;18103;52.246;8.052;2023-07-29T08:24:28;1.47;;;1.10;;
31482;SDS011;18103;52.246;8.052;2023-07-29T08:26:56;2.60;;;1.13;;
31482;SDS011;18103;52.246;8.052;2023-07-29T08:29:21;1.20;;;0.80;;
31482;SDS011;18103;52.246;8.052;2023-07-29T08:31:46;1.23;;;1.00;;
31482;SDS011;18103;52.246;8.052;2023-07-29T08:34:16;1.27;;;0.97;;
31482;SDS011;18103;52.246;8.052;2023-07-29T08:36:44;1.37;;;1.20;;
31482;SDS011;18103;52.246;8.052;2023-07-29T08:39:09;3.50;;;1.10;;
31482;SDS011;18103;52.246;8.052;2023-07-29T08:41:37;2.97;;;1.27;;
31482;SDS011;18103;52.246;8.052;2023-07-29T08:44:14;1.50;;;0.90;;
31482;SDS011;18103;52.246;8.052;2023-07-29T08:46:50;1.87;;;1.20;;
31482;SDS011;18103;52.246;8.052;2023-07-29T08:49:20;0.93;;;0.83;;
31482;SDS011;18103;52.246;8.052;2023-07-29T08:51:49;3.67;;;1.07;;
31482;SDS011;18103;52.246;8.052;2023-07-29T08:54:16;2.30;;;1.00;;
31482;SDS011;18103;52.246;8.052;2023-07-29T08:56:44;0.93;;;0.77;;
31482;SDS011;18103;52.246;8.052;2023-07-29T08:59:10;2.17;;;0.90;;
31482;SDS011;18103;52.246;8.052;2023-07-29T09:01:37;3.67;;;1.00;;
31482;SDS011;18103;52.246;8.052;2023-07-29T09:04:06;2.27;;;0.90;;
31482;SDS011;18103;52.246;8.052;2023-07-29T09:06:35;1.60;;;0.93;;
31482;SDS011;18103;52.246;8.052;2023-07-29T09:09:01;2.00;;;1.00;;
31482;SDS011;18103;52.246;8.052;2023-07-29T09:11:31;1.07;;;0.73;;
31482;SDS011;18103;52.246;8.052;2023-07-29T09:13:58;1.53;;;0.90;;
31482;SDS011;18103;52.246;8.052;2023-07-29T09:16:23;2.60;;;0.80;;
31482;SDS011;18103;52.246;8.052;2023-07-29T09:18:52;1.13;;;0.90;;
31482;SDS011;18103;52.246;8.052;2023-07-29T09:21:18;2.77;;;0.90;;
31482;SDS011;18103;52.246;8.052;2023-07-29T09:23:50;1.30;;;0.80;;
31482;SDS011;18103;52.246;8.052;2023-07-29T09:28:56;0.90;;;0.80;;
31482;SDS011;18103;52.246;8.052;2023-07-29T09:31:24;1.37;;;0.83;;
31482;SDS011;18103;52.246;8.052;2023-07-29T09:33:58;0.97;;;0.73;;
31482;SDS011;18103;52.246;8.052;2023-07-29T09:36:27;1.23;;;0.80;;
31482;SDS011;18103;52.246;8.052;2023-07-29T09:38:55;1.53;;;1.00;;
31482;SDS011;18103;52.246;8.052;2023-07-29T09:41:24;1.60;;;1.00;;
31482;SDS011;18103;52.246;8.052;2023-07-29T09:43:56;1.20;;;0.87;;
31482;SDS011;18103;52.246;8.052;2023-07-29T09:46:23;0.93;;;0.70;;
31482;SDS011;18103;52.246;8.052;2023-07-29T09:48:53;1.17;;;0.73;;
31482;SDS011;18103;52.246;8.052;2023-07-29T09:51:21;1.37;;;0.60;;
31482;SDS011;18103;52.246;8.052;2023-07-29T09:53:47;0.97;;;0.57;;
31482;SDS011;18103;52.246;8.052;2023-07-29T09:56:13;1.00;;;0.50;;
31482;SDS011;18103;52.246;8.052;2023-07-29T09:58:45;1.17;;;0.80;;
31482;SDS011;18103;52.246;8.052;2023-07-29T10:01:11;1.60;;;0.50;;
31482;SDS011;18103;52.246;8.052;2023-07-29T10:03:39;2.23;;;0.83;;
31482;SDS011;18103;52.246;8.052;2023-07-29T10:06:05;0.57;;;0.53;;
31482;SDS011;18103;52.246;8.052;2023-07-29T10:08:32;1.80;;;0.80;;
31482;SDS011;18103;52.246;8.052;2023-07-29T10:11:01;2.20;;;0.70;;
31482;SDS011;18103;52.246;8.052;2023-07-29T10:13:29;0.90;;;0.77;;
31482;SDS011;18103;52.246;8.052;2023-07-29T10:15:55;1.13;;;0.73;;
31482;SDS011;18103;52.246;8.052;2023-07-29T10:18:21;2.87;;;0.80;;
31482;SDS011;18103;52.246;8.052;2023-07-29T10:20:51;0.90;;;0.67;;
31482;SDS011;18103;52.246;8.052;2023-07-29T10:23:17;0.97;;;0.70;;
31482;SDS011;18103;52.246;8.052;2023-07-29T10:25:50;1.43;;;0.70;;
31482;SDS011;18103;52.246;8.052;2023-07-29T10:28:25;0.80;;;0.50;;
31482;SDS011;18103;52.246;8.052;2023-07-29T10:30:51;2.67;;;0.70;;
31482;SDS011;18103;52.246;8.052;2023-07-29T10:33:19;1.00;;;0.50;;
31482;SDS011;18103;52.246;8.052;2023-07-29T10:35:47;0.87;;;0.60;;
31482;SDS011;18103;52.246;8.052;2023-07-29T10:38:15;1.70;;;0.70;;
31482;SDS011;18103;52.246;8.052;2023-07-29T10:40:48;4.93;;;0.60;;
31482;SDS011;18103;52.246;8.052;2023-07-29T10:46:14;1.00;;;0.70;;
31482;SDS011;18103;52.246;8.052;2023-07-29T10:48:43;0.80;;;0.60;;
31482;SDS011;18103;52.246;8.052;2023-07-29T10:54:02;2.60;;;0.70;;
31482;SDS011;18103;52.246;8.052;2023-07-29T10:56:29;0.80;;;0.50;;
31482;SDS011;18103;52.246;8.052;2023-07-29T10:59:22;1.20;;;1.00;;
31482;SDS011;18103;52.246;8.052;2023-07-29T11:01:56;0.87;;;0.50;;
31482;SDS011;18103;52.246;8.052;2023-07-29T11:04:26;0.50;;;0.50;;
31482;SDS011;18103;52.246;8.052;2023-07-29T11:09:41;2.23;;;0.50;;
31482;SDS011;18103;52.246;8.052;2023-07-29T11:15:03;0.70;;;0.50;;
31482;SDS011;18103;52.246;8.052;2023-07-29T11:17:35;0.90;;;0.50;;
31482;SDS011;18103;52.246;8.052;2023-07-29T11:20:03;0.50;;;0.50;;
31482;SDS011;18103;52.246;8.052;2023-07-29T11:22:29;0.63;;;0.63;;
31482;SDS011;18103;52.246;8.052;2023-07-29T11:24:58;1.33;;;0.80;;
31482;SDS011;18103;52.246;8.052;2023-07-29T11:27:26;1.53;;;0.70;;
31482;SDS011;18103;52.246;8.052;2023-07-29T11:29:56;1.27;;;0.60;;
31482;SDS011;18103;52.246;8.052;2023-07-29T11:32:25;0.60;;;0.60;;
31482;SDS011;18103;52.246;8.052;2023-07-29T11:34:56;2.47;;;0.80;;
31482;SDS011;18103;52.246;8.052;2023-07-29T11:37:24;0.80;;;0.67;;
31482;SDS011;18103;52.246;8.052;2023-07-29T11:39:49;3.43;;;0.80;;
31482;SDS011;18103;52.246;8.052;2023-07-29T11:42:16;0.80;;;0.70;;
31482;SDS011;18103;52.246;8.052;2023-07-29T11:44:44;1.70;;;0.90;;
31482;SDS011;18103;52.246;8.052;2023-07-29T11:47:10;0.93;;;0.77;;
31482;SDS011;18103;52.246;8.052;2023-07-29T11:49:40;1.17;;;0.83;;
31482;SDS011;18103;52.246;8.052;2023-07-29T11:52:09;2.13;;;1.00;;
31482;SDS011;18103;52.246;8.052;2023-07-29T11:54:35;0.77;;;0.60;;
31482;SDS011;18103;52.246;8.052;2023-07-29T11:57:03;1.70;;;0.63;;
31482;SDS011;18103;52.246;8.052;2023-07-29T11:59:31;1.27;;;0.77;;
31482;SDS011;18103;52.246;8.052;2023-07-29T12:01:58;0.60;;;0.60;;
31482;SDS011;18103;52.246;8.052;2023-07-29T12:04:29;2.30;;;0.87;;
31482;SDS011;18103;52.246;8.052;2023-07-29T12:06:55;2.57;;;1.23;;
31482;SDS011;18103;52.246;8.052;2023-07-29T12:09:23;2.90;;;0.83;;
31482;SDS011;18103;52.246;8.052;2023-07-29T12:11:49;2.77;;;1.03;;
31482;SDS011;18103;52.246;8.052;2023-07-29T12:14:16;1.37;;;0.80;;
31482;SDS011;18103;52.246;8.052;2023-07-29T12:16:44;1.00;;;0.87;;
31482;SDS011;18103;52.246;8.052;2023-07-29T12:19:12;1.67;;;1.30;;
31482;SDS011;18103;52.246;8.052;2023-07-29T12:21:38;1.47;;;0.90;;
31482;SDS011;18103;52.246;8.052;2023-07-29T12:24:07;1.77;;;1.00;;
31482;SDS011;18103;52.246;8.052;2023-07-29T12:26:33;1.00;;;0.90;;
31482;SDS011;18103;52.246;8.052;2023-07-29T12:29:10;1.97;;;1.10;;
31482;SDS011;18103;52.246;8.052;2023-07-29T12:31:37;0.97;;;0.70;;
31482;SDS011;18103;52.246;8.052;2023-07-29T12:34:02;1.33;;;0.93;;
31482;SDS011;18103;52.246;8.052;2023-07-29T12:36:44;1.30;;;1.20;;
31482;SDS011;18103;52.246;8.052;2023-07-29T12:41:45;2.13;;;1.00;;
31482;SDS011;18103;52.246;8.052;2023-07-29T12:44:12;2.63;;;1.10;;
31482;SDS011;18103;52.246;8.052;2023-07-29T12:46:37;2.50;;;1.30;;
31482;SDS011;18103;52.246;8.052;2023-07-29T12:49:03;0.90;;;0.90;;
31482;SDS011;18103;52.246;8.052;2023-07-29T12:51:28;2.67;;;1.20;;
31482;SDS011;18103;52.246;8.052;2023-07-29T12:53:54;2.03;;;0.93;;
31482;SDS011;18103;52.246;8.052;2023-07-29T12:56:22;0.80;;;0.80;;
31482;SDS011;18103;52.246;8.052;2023-07-29T12:58:47;3.30;;;1.13;;
31482;SDS011;18103;52.246;8.052;2023-07-29T13:01:16;2.40;;;1.10;;
31482;SDS011;18103;52.246;8.052;2023-07-29T13:03:44;1.03;;;0.83;;
31482;SDS011;18103;52.246;8.052;2023-07-29T13:06:10;1.97;;;1.17;;
31482;SDS011;18103;52.246;8.052;2023-07-29T13:08:36;1.33;;;0.80;;
31482;SDS011;18103;52.246;8.052;2023-07-29T13:11:01;0.70;;;0.63;;
31482;SDS011;18103;52.246;8.052;2023-07-29T13:13:30;1.10;;;0.83;;
31482;SDS011;18103;52.246;8.052;2023-07-29T13:15:56;1.57;;;0.90;;
31482;SDS011;18103;52.246;8.052;2023-07-29T13:18:24;2.77;;;1.00;;
31482;SDS011;18103;52.246;8.052;2023-07-29T13:20:49;1.17;;;0.90;;
31482;SDS011;18103;52.246;8.052;2023-07-29T13:23:15;2.53;;;1.07;;
31482;SDS011;18103;52.246;8.052;2023-07-29T13:25:41;4.37;;;0.87;;
31482;SDS011;18103;52.246;8.052;2023-07-29T13:28:06;2.00;;;1.00;;
31482;SDS011;18103;52.246;8.052;2023-07-29T13:30:32;0.87;;;0.83;;
31482;SDS011;18103;52.246;8.052;2023-07-29T13:32:58;1.20;;;0.90;;
31482;SDS011;18103;52.246;8.052;2023-07-29T13:35:23;2.33;;;1.23;;
31482;SDS011;18103;52.246;8.052;2023-07-29T13:37:49;2.23;;;0.80;;
31482;SDS011;18103;52.246;8.052;2023-07-29T13:40:16;1.70;;;1.03;;
31482;SDS011;18103;52.246;8.052;2023-07-29T13:42:44;2.27;;;0.90;;
31482;SDS011;18103;52.246;8.052;2023-07-29T13:45:09;0.97;;;0.80;;
31482;SDS011;18103;52.246;8.052;2023-07-29T13:47:37;6.17;;;1.20;;
31482;SDS011;18103;52.246;8.052;2023-07-29T13:50:04;4.47;;;1.10;;
31482;SDS011;18103;52.246;8.052;2023-07-29T13:52:33;2.20;;;1.07;;
31482;SDS011;18103;52.246;8.052;2023-07-29T13:54:58;6.30;;;1.40;;
31482;SDS011;18103;52.246;8.052;2023-07-29T13:57:26;2.07;;;1.27;;
31482;SDS011;18103;52.246;8.052;2023-07-29T13:59:52;2.50;;;1.07;;
31482;SDS011;18103;52.246;8.052;2023-07-29T14:02:19;6.33;;;1.50;;
31482;SDS011;18103;52.246;8.052;2023-07-29T14:04:45;4.33;;;0.93;;
31482;SDS011;18103;52.246;8.052;2023-07-29T14:07:10;2.10;;;0.97;;
31482;SDS011;18103;52.246;8.052;2023-07-29T14:09:38;2.40;;;0.97;;
31482;SDS011;18103;52.246;8.052;2023-07-29T14:12:08;2.17;;;1.27;;
31482;SDS011;18103;52.246;8.052;2023-07-29T14:14:37;1.93;;;1.00;;
31482;SDS011;18103;52.246;8.052;2023-07-29T14:17:02;3.30;;;1.20;;
31482;SDS011;18103;52.246;8.052;2023-07-29T14:19:28;1.37;;;1.03;;
31482;SDS011;18103;52.246;8.052;2023-07-29T14:21:55;2.80;;;1.20;;
31482;SDS011;18103;52.246;8.052;2023-07-29T14:24:21;2.97;;;1.20;;
31482;SDS011;18103;52.246;8.052;2023-07-29T14:26:51;1.73;;;1.47;;
31482;SDS011;18103;52.246;8.052;2023-07-29T14:29:16;2.50;;;1.37;;
31482;SDS011;18103;52.246;8.052;2023-07-29T14:31:42;2.13;;;1.03;;
31482;SDS011;18103;52.246;8.052;2023-07-29T14:34:07;1.53;;;1.17;;
31482;SDS011;18103;52.246;8.052;2023-07-29T14:36:32;1.87;;;1.23;;
31482;SDS011;18103;52.246;8.052;2023-07-29T14:38:58;1.30;;;1.20;;
31482;SDS011;18103;52.246;8.052;2023-07-29T14:41:23;1.53;;;1.20;;
31482;SDS011;18103;52.246;8.052;2023-07-29T14:43:51;4.97;;;1.20;;
31482;SDS011;18103;52.246;8.052;2023-07-29T14:46:19;3.30;;;1.13;;
31482;SDS011;18103;52.246;8.052;2023-07-29T14:48:44;5.07;;;1.47;;
31482;SDS011;18103;52.246;8.052;2023-07-29T14:51:10;2.43;;;1.50;;
31482;SDS011;18103;52.246;8.052;2023-07-29T14:53:38;6.47;;;1.40;;
31482;SDS011;18103;52.246;8.052;2023-07-29T14:56:04;5.63;;;1.40;;
31482;SDS011;18103;52.246;8.052;2023-07-29T14:58:29;2.87;;;1.57;;
31482;SDS011;18103;52.246;8.052;2023-07-29T15:00:55;3.80;;;1.23;;